Time;durP1;ratioP1;P1;durP2;ratioP2;P2;SDS_P1;SDS_P2;PMS_P1;PMS_P2;Temp;Humidity;BMP_temperature;BMP_pressure;BME280_temperature;BME280_humidity;BME280_pressure;Samples;Min_cycle;Max_cycle;Signal;HPM_P1;HPM_P2
2022/05/17 00:02:01;;;;;;;;;5.00;5.00;;;;;;;;5060177;28;45600;-65
2022/05/17 00:04:26;;;;;;;;;6.50;5.50;;;;;;;;5061528;28;45550;-66
2022/05/17 00:06:51;;;;;;;;;6.00;6.00;;;;;;;;5057992;28;47041;-66
2022/05/17 00:09:17;;;;;;;;;6.00;4.75;;;;;;;;5059806;28;45497;-65
2022/05/17 00:11:46;;;;;;;;;7.25;7.25;;;;;;;;5059634;28;45477;-65
2022/05/17 00:14:12;;;;;;;;;8.50;5.75;;;;;;;;5067874;27;45577;-66
2022/05/17 00:16:37;;;;;;;;;8.00;6.00;;;;;;;;5070834;28;45469;-65
2022/05/17 00:19:03;;;;;;;;;5.00;4.00;;;;;;;;5068684;28;45574;-66
2022/05/17 00:21:28;;;;;;;;;6.25;6.25;;;;;;;;5065888;28;45460;-65
2022/05/17 00:23:54;;;;;;;;;4.75;4.75;;;;;;;;5057315;28;45449;-66
2022/05/17 00:26:19;;;;;;;;;7.25;6.25;;;;;;;;5070706;28;46387;-66
2022/05/17 00:28:44;;;;;;;;;5.75;4.75;;;;;;;;5070741;27;45519;-66
2022/05/17 00:31:09;;;;;;;;;5.25;5.25;;;;;;;;5058078;28;45261;-66
2022/05/17 00:33:35;;;;;;;;;5.75;5.75;;;;;;;;5060752;28;45518;-66
2022/05/17 00:36:00;;;;;;;;;8.50;7.00;;;;;;;;5062229;28;45430;-66
2022/05/17 00:38:25;;;;;;;;;4.00;4.00;;;;;;;;5069574;27;45493;-66
2022/05/17 00:40:51;;;;;;;;;3.75;3.75;;;;;;;;5061122;28;45378;-65
2022/05/17 00:43:30;;;;;;;;;7.00;7.00;;;;;;;;5064777;28;45509;-66
2022/05/17 00:45:59;;;;;;;;;8.75;7.50;;;;;;;;5061513;28;47228;-65
2022/05/17 00:48:24;;;;;;;;;4.00;4.00;;;;;;;;5060146;28;45210;-66
2022/05/17 00:50:51;;;;;;;;;3.50;3.50;;;;;;;;5070624;27;45339;-66
2022/05/17 00:53:21;;;;;;;;;7.75;7.75;;;;;;;;5054667;28;45328;-66
2022/05/17 00:55:56;;;;;;;;;6.25;6.00;;;;;;;;5068279;28;46434;-65
2022/05/17 00:58:47;;;;;;;;;5.50;5.50;;;;;;;;5061874;28;45598;-66
2022/05/17 01:01:14;;;;;;;;;5.75;5.75;;;;;;;;5043000;28;45443;-66
2022/05/17 01:03:45;;;;;;;;;8.50;5.25;;;;;;;;5056553;28;45534;-66
2022/05/17 01:06:11;;;;;;;;;6.75;6.75;;;;;;;;5058726;28;47128;-66
2022/05/17 01:08:36;;;;;;;;;6.50;5.75;;;;;;;;5068259;28;45379;-65
2022/05/17 01:11:01;;;;;;;;;7.25;7.25;;;;;;;;5072620;28;45588;-65
2022/05/17 01:16:11;;;;;;;;;4.75;4.75;;;;;;;;5069398;28;45802;-65
2022/05/17 01:18:38;;;;;;;;;6.75;4.00;;;;;;;;5063537;27;45514;-64
2022/05/17 01:21:04;;;;;;;;;7.25;6.00;;;;;;;;5058005;28;46184;-66
2022/05/17 01:23:30;;;;;;;;;8.25;5.50;;;;;;;;5056772;28;45390;-66
2022/05/17 01:25:55;;;;;;;;;5.50;5.00;;;;;;;;5058473;28;46511;-66
2022/05/17 01:28:22;;;;;;;;;6.25;5.00;;;;;;;;5059519;28;45430;-66
2022/05/17 01:30:48;;;;;;;;;7.75;5.75;;;;;;;;5058578;28;45463;-66
2022/05/17 01:33:14;;;;;;;;;8.00;5.00;;;;;;;;5058956;28;45550;-66
2022/05/17 01:35:39;;;;;;;;;7.00;5.25;;;;;;;;5060310;28;47001;-65
2022/05/17 01:38:04;;;;;;;;;2.00;1.00;;;;;;;;5056361;28;45388;-65
2022/05/17 01:40:29;;;;;;;;;6.50;4.00;;;;;;;;5071119;28;45499;-65
2022/05/17 01:42:55;;;;;;;;;3.00;3.00;;;;;;;;5061461;28;45495;-65
2022/05/17 01:45:20;;;;;;;;;5.00;4.50;;;;;;;;5058058;28;46275;-65
2022/05/17 01:47:45;;;;;;;;;7.50;7.00;;;;;;;;5062488;28;45490;-65
2022/05/17 01:50:11;;;;;;;;;5.00;5.00;;;;;;;;5055436;28;45587;-65
2022/05/17 01:52:36;;;;;;;;;4.75;4.50;;;;;;;;5059771;28;45385;-65
2022/05/17 01:55:01;;;;;;;;;5.00;4.25;;;;;;;;5058668;28;47121;-65
2022/05/17 01:57:26;;;;;;;;;3.75;3.00;;;;;;;;5058282;28;45386;-65
2022/05/17 01:59:52;;;;;;;;;3.00;2.00;;;;;;;;5059095;28;45316;-66
2022/05/17 02:02:17;;;;;;;;;6.75;5.75;;;;;;;;5066512;27;45482;-65
2022/05/17 02:04:42;;;;;;;;;7.25;6.00;;;;;;;;5062045;28;45422;-65
2022/05/17 02:07:07;;;;;;;;;6.50;5.00;;;;;;;;5058482;28;45378;-65
2022/05/17 02:09:33;;;;;;;;;6.00;6.00;;;;;;;;5056481;27;45384;-65
2022/05/17 02:11:58;;;;;;;;;5.50;5.25;;;;;;;;5061944;28;45497;-65
2022/05/17 02:14:24;;;;;;;;;3.75;3.75;;;;;;;;5054036;28;45955;-65
2022/05/17 02:16:49;;;;;;;;;6.25;5.00;;;;;;;;5058868;28;45834;-66
2022/05/17 02:19:19;;;;;;;;;7.75;7.00;;;;;;;;5069469;28;45477;-65
2022/05/17 02:21:44;;;;;;;;;4.00;4.00;;;;;;;;5068640;28;45476;-65
2022/05/17 02:24:09;;;;;;;;;5.50;4.50;;;;;;;;5062259;27;46091;-65
2022/05/17 02:26:35;;;;;;;;;5.75;4.75;;;;;;;;5055900;28;45280;-65
2022/05/17 02:29:00;;;;;;;;;5.25;5.00;;;;;;;;5055214;28;45358;-65
2022/05/17 02:31:25;;;;;;;;;5.50;4.50;;;;;;;;5072402;28;45544;-65
2022/05/17 02:33:50;;;;;;;;;6.00;6.00;;;;;;;;5059413;28;47108;-66
2022/05/17 02:36:16;;;;;;;;;4.50;4.50;;;;;;;;5060338;28;45491;-65
2022/05/17 02:38:43;;;;;;;;;7.00;6.25;;;;;;;;5055231;28;45400;-65
2022/05/17 02:41:08;;;;;;;;;3.00;3.00;;;;;;;;5055360;28;45463;-66
2022/05/17 02:43:33;;;;;;;;;4.00;4.00;;;;;;;;5059420;28;45390;-65
2022/05/17 02:45:59;;;;;;;;;4.75;3.75;;;;;;;;5057286;28;45324;-65
2022/05/17 02:48:24;;;;;;;;;3.00;3.00;;;;;;;;5058114;28;45431;-65
2022/05/17 02:50:49;;;;;;;;;3.50;3.50;;;;;;;;5057071;28;45530;-65
2022/05/17 02:53:14;;;;;;;;;3.00;3.00;;;;;;;;5052982;28;47322;-65
2022/05/17 02:55:40;;;;;;;;;6.50;5.00;;;;;;;;5059372;28;45423;-65
2022/05/17 02:58:05;;;;;;;;;4.00;4.00;;;;;;;;5057426;28;45495;-65
2022/05/17 03:00:31;;;;;;;;;4.00;4.00;;;;;;;;5063218;28;45301;-65
2022/05/17 03:02:57;;;;;;;;;3.50;3.50;;;;;;;;5065410;28;47075;-65
2022/05/17 03:05:23;;;;;;;;;4.25;4.00;;;;;;;;5066639;28;45512;-65
2022/05/17 03:07:48;;;;;;;;;3.00;3.00;;;;;;;;5068396;27;45533;-65
2022/05/17 03:10:14;;;;;;;;;3.50;3.50;;;;;;;;5064207;28;45577;-65
2022/05/17 03:12:40;;;;;;;;;2.75;2.75;;;;;;;;5059406;28;45511;-65
2022/05/17 03:15:06;;;;;;;;;4.75;4.75;;;;;;;;5056929;27;45379;-65
2022/05/17 03:17:31;;;;;;;;;4.00;4.00;;;;;;;;5053081;28;45439;-65
2022/05/17 03:19:57;;;;;;;;;6.25;5.00;;;;;;;;5066845;28;45475;-65
2022/05/17 03:22:22;;;;;;;;;3.50;3.50;;;;;;;;5066262;28;47468;-65
2022/05/17 03:24:48;;;;;;;;;4.00;4.00;;;;;;;;5063684;28;45361;-65
2022/05/17 03:27:16;;;;;;;;;5.00;5.00;;;;;;;;5065306;28;45325;-65
2022/05/17 03:29:41;;;;;;;;;4.25;4.25;;;;;;;;5055823;28;45478;-65
2022/05/17 03:32:06;;;;;;;;;4.25;4.25;;;;;;;;5035378;28;47068;-65
2022/05/17 03:34:32;;;;;;;;;5.50;5.50;;;;;;;;5062930;28;45503;-65
2022/05/17 03:36:57;;;;;;;;;6.00;5.00;;;;;;;;5059077;28;45489;-65
2022/05/17 03:39:22;;;;;;;;;3.75;3.75;;;;;;;;5058358;28;45236;-65
2022/05/17 03:41:47;;;;;;;;;2.75;2.75;;;;;;;;5060598;28;46421;-66
2022/05/17 03:44:12;;;;;;;;;6.75;5.75;;;;;;;;5071918;27;45287;-65
2022/05/17 03:46:38;;;;;;;;;4.50;4.25;;;;;;;;5062244;28;45443;-65
2022/05/17 03:49:03;;;;;;;;;7.75;5.75;;;;;;;;5059685;28;45363;-65
2022/05/17 03:51:28;;;;;;;;;6.00;4.75;;;;;;;;5059650;27;47328;-66
2022/05/17 03:53:54;;;;;;;;;3.75;3.75;;;;;;;;5059679;28;45423;-66
2022/05/17 03:56:19;;;;;;;;;4.75;4.75;;;;;;;;5055934;28;45470;-66
2022/05/17 03:58:45;;;;;;;;;7.00;6.00;;;;;;;;5072584;27;45208;-65
2022/05/17 04:01:10;;;;;;;;;6.25;5.00;;;;;;;;5059042;28;45435;-66
2022/05/17 04:03:37;;;;;;;;;9.00;9.00;;;;;;;;5043664;28;45556;-66
2022/05/17 04:06:02;;;;;;;;;10.00;9.50;;;;;;;;5069119;28;46203;-66
2022/05/17 04:08:27;;;;;;;;;7.50;6.00;;;;;;;;5055830;28;45537;-64
2022/05/17 04:10:52;;;;;;;;;10.00;8.75;;;;;;;;5060240;28;45488;-65
2022/05/17 04:13:18;;;;;;;;;7.50;6.50;;;;;;;;5068577;27;45608;-65
2022/05/17 04:15:43;;;;;;;;;6.75;6.75;;;;;;;;5061951;27;45870;-65
2022/05/17 04:18:08;;;;;;;;;1.25;1.00;;;;;;;;5058069;28;46645;-64
2022/05/17 04:20:34;;;;;;;;;8.75;7.50;;;;;;;;5069992;28;47361;-64
2022/05/17 04:22:59;;;;;;;;;8.00;7.50;;;;;;;;5058048;28;45665;-65
2022/05/17 04:25:25;;;;;;;;;9.25;8.25;;;;;;;;5060285;28;45473;-67
2022/05/17 04:27:51;;;;;;;;;9.00;7.50;;;;;;;;5059915;28;45587;-65
2022/05/17 04:30:16;;;;;;;;;14.75;11.25;;;;;;;;5058646;27;46032;-66
2022/05/17 04:32:42;;;;;;;;;9.00;9.00;;;;;;;;5057159;28;45332;-65
2022/05/17 04:35:07;;;;;;;;;14.25;13.00;;;;;;;;5057779;28;45386;-64
2022/05/17 04:37:33;;;;;;;;;10.75;10.75;;;;;;;;5069184;28;45284;-66
2022/05/17 04:39:58;;;;;;;;;8.75;8.75;;;;;;;;5061971;28;46181;-66
2022/05/17 04:42:23;;;;;;;;;8.75;8.00;;;;;;;;5058324;28;45241;-67
2022/05/17 04:44:49;;;;;;;;;8.00;7.00;;;;;;;;5059150;28;45352;-66
2022/05/17 04:47:14;;;;;;;;;8.25;8.25;;;;;;;;5054456;28;45543;-64
2022/05/17 04:49:39;;;;;;;;;11.25;7.00;;;;;;;;5060744;28;45342;-66
2022/05/17 04:52:05;;;;;;;;;13.00;11.50;;;;;;;;5058488;27;46119;-65
2022/05/17 04:54:30;;;;;;;;;10.50;9.00;;;;;;;;5058547;28;45707;-66
2022/05/17 04:56:56;;;;;;;;;12.75;11.00;;;;;;;;5057923;28;45531;-66
2022/05/17 04:59:21;;;;;;;;;18.75;15.75;;;;;;;;5054889;28;47267;-66
2022/05/17 05:01:46;;;;;;;;;12.00;12.00;;;;;;;;5062383;28;45424;-66
2022/05/17 05:04:12;;;;;;;;;11.75;10.50;;;;;;;;5062523;27;45611;-65
2022/05/17 05:06:37;;;;;;;;;11.75;9.00;;;;;;;;5061850;28;45418;-66
2022/05/17 05:09:02;;;;;;;;;10.00;7.75;;;;;;;;5058460;28;45513;-66
2022/05/17 05:11:28;;;;;;;;;9.00;8.00;;;;;;;;5063451;28;45478;-65
2022/05/17 05:13:53;;;;;;;;;8.50;7.75;;;;;;;;5056326;28;45562;-66
2022/05/17 05:16:18;;;;;;;;;12.00;9.25;;;;;;;;5057877;28;45532;-65
2022/05/17 05:18:44;;;;;;;;;5.50;5.50;;;;;;;;5057173;28;46165;-65
2022/05/17 05:21:10;;;;;;;;;9.50;8.50;;;;;;;;5058091;27;45428;-64
2022/05/17 05:23:36;;;;;;;;;16.00;12.00;;;;;;;;5055144;28;45395;-66
2022/05/17 05:26:02;;;;;;;;;11.50;11.50;;;;;;;;5065871;28;45296;-65
2022/05/17 05:28:27;;;;;;;;;14.00;9.75;;;;;;;;5070741;28;46175;-66
2022/05/17 05:30:53;;;;;;;;;11.25;9.25;;;;;;;;5061300;27;45727;-66
2022/05/17 05:33:18;;;;;;;;;9.50;8.75;;;;;;;;5063279;28;45558;-66
2022/05/17 05:35:44;;;;;;;;;10.00;7.75;;;;;;;;5057352;28;45388;-69
2022/05/17 05:38:09;;;;;;;;;9.25;7.75;;;;;;;;5069450;28;46850;-65
2022/05/17 05:40:35;;;;;;;;;9.00;9.00;;;;;;;;5059212;28;45476;-66
2022/05/17 05:43:00;;;;;;;;;11.75;10.75;;;;;;;;5059293;28;45294;-67
2022/05/17 05:45:25;;;;;;;;;15.25;13.50;;;;;;;;5059864;28;45459;-68
2022/05/17 05:47:50;;;;;;;;;9.00;8.25;;;;;;;;5068498;27;47038;-68
2022/05/17 05:50:16;;;;;;;;;15.50;13.50;;;;;;;;5068338;28;45483;-67
2022/05/17 05:52:41;;;;;;;;;14.00;9.00;;;;;;;;5066459;27;45389;-66
2022/05/17 05:55:07;;;;;;;;;11.00;10.00;;;;;;;;5059162;28;45421;-67
2022/05/17 05:57:32;;;;;;;;;11.25;9.75;;;;;;;;5062448;27;46992;-67
2022/05/17 05:59:58;;;;;;;;;13.00;11.00;;;;;;;;5055620;28;45551;-66
2022/05/17 06:02:23;;;;;;;;;10.00;10.00;;;;;;;;5053688;28;45459;-67
2022/05/17 06:04:48;;;;;;;;;11.25;11.25;;;;;;;;5066693;27;46839;-70
2022/05/17 06:07:14;;;;;;;;;19.00;16.75;;;;;;;;5053700;28;46164;-67
2022/05/17 06:09:39;;;;;;;;;15.00;15.00;;;;;;;;5046439;28;45581;-67
2022/05/17 06:12:04;;;;;;;;;12.50;12.50;;;;;;;;5054522;28;45661;-67
2022/05/17 06:14:30;;;;;;;;;19.25;18.25;;;;;;;;5048727;28;45422;-67
2022/05/17 06:16:55;;;;;;;;;16.25;14.75;;;;;;;;5050785;28;46134;-67
2022/05/17 06:19:23;;;;;;;;;17.00;17.00;;;;;;;;5048189;28;45372;-68
2022/05/17 06:21:48;;;;;;;;;15.75;14.50;;;;;;;;5044143;28;45413;-67
2022/05/17 06:24:14;;;;;;;;;21.75;17.25;;;;;;;;5049626;28;45183;-67
2022/05/17 06:26:39;;;;;;;;;19.75;18.75;;;;;;;;5053410;28;46330;-66
2022/05/17 06:29:05;;;;;;;;;15.75;14.25;;;;;;;;5049725;28;45482;-68
2022/05/17 06:31:30;;;;;;;;;11.75;11.75;;;;;;;;5043205;28;47409;-68
2022/05/17 06:33:56;;;;;;;;;10.50;10.50;;;;;;;;5049537;28;45617;-67
2022/05/17 06:36:21;;;;;;;;;11.25;9.00;;;;;;;;5066985;28;45443;-67
2022/05/17 06:38:46;;;;;;;;;10.50;9.50;;;;;;;;5053449;27;45499;-67
2022/05/17 06:41:11;;;;;;;;;11.00;8.50;;;;;;;;5050571;28;45497;-67
2022/05/17 06:43:37;;;;;;;;;10.75;9.75;;;;;;;;5047015;28;45464;-68
2022/05/17 06:46:03;;;;;;;;;12.25;10.00;;;;;;;;5065118;27;46139;-68
2022/05/17 06:48:28;;;;;;;;;10.50;9.50;;;;;;;;5050273;28;45423;-69
2022/05/17 06:50:53;;;;;;;;;9.50;9.50;;;;;;;;5051185;28;45368;-68
2022/05/17 06:53:19;;;;;;;;;12.50;11.50;;;;;;;;5056319;28;45435;-66
2022/05/17 06:55:44;;;;;;;;;10.75;9.25;;;;;;;;5059727;28;46185;-67
2022/05/17 06:58:09;;;;;;;;;13.50;10.25;;;;;;;;5048726;28;45888;-68
2022/05/17 07:00:34;;;;;;;;;14.00;12.25;;;;;;;;5050538;28;47692;-68
2022/05/17 07:03:00;;;;;;;;;16.50;11.75;;;;;;;;5054372;28;45479;-68
2022/05/17 07:05:26;;;;;;;;;12.00;12.00;;;;;;;;5045574;28;47042;-68
2022/05/17 07:07:52;;;;;;;;;8.50;6.25;;;;;;;;5045933;28;45583;-67
2022/05/17 07:13:10;;;;;;;;;9.50;7.25;;;;;;;;5034739;28;45510;-67
2022/05/17 07:15:46;;;;;;;;;11.00;9.25;;;;;;;;5050305;28;47244;-68
2022/05/17 07:18:13;;;;;;;;;12.75;7.00;;;;;;;;5051570;28;45236;-67
2022/05/17 07:20:38;;;;;;;;;8.75;7.25;;;;;;;;5049249;28;45551;-68
2022/05/17 07:23:03;;;;;;;;;6.75;6.75;;;;;;;;5049452;28;45578;-67
2022/05/17 07:25:29;;;;;;;;;12.50;10.00;;;;;;;;5049149;28;45297;-67
2022/05/17 07:27:55;;;;;;;;;7.00;5.75;;;;;;;;5053420;28;45538;-66
2022/05/17 07:30:20;;;;;;;;;6.50;6.50;;;;;;;;5052445;28;45231;-66
2022/05/17 07:32:46;;;;;;;;;7.75;5.50;;;;;;;;5050482;28;45257;-68
2022/05/17 07:35:12;;;;;;;;;6.00;6.00;;;;;;;;5049521;28;47222;-67
2022/05/17 07:37:38;;;;;;;;;6.25;5.50;;;;;;;;5058273;28;45502;-67
2022/05/17 07:40:03;;;;;;;;;6.50;5.25;;;;;;;;5056029;27;45504;-67
2022/05/17 07:42:29;;;;;;;;;12.00;10.25;;;;;;;;5057519;28;45379;-67
2022/05/17 07:44:54;;;;;;;;;11.25;10.25;;;;;;;;5059389;28;45392;-67
2022/05/17 07:47:19;;;;;;;;;11.00;9.50;;;;;;;;5058397;28;45506;-67
2022/05/17 07:49:44;;;;;;;;;4.25;4.25;;;;;;;;5058568;28;45457;-67
2022/05/17 07:52:10;;;;;;;;;12.25;8.50;;;;;;;;5056232;28;45722;-67
2022/05/17 07:54:37;;;;;;;;;5.50;5.00;;;;;;;;5055401;28;45379;-67
2022/05/17 07:57:03;;;;;;;;;7.25;6.00;;;;;;;;5058436;28;45374;-68
2022/05/17 07:59:28;;;;;;;;;9.25;8.25;;;;;;;;5058261;28;45484;-67
2022/05/17 08:01:53;;;;;;;;;12.75;11.75;;;;;;;;5058727;28;45452;-67
2022/05/17 08:04:18;;;;;;;;;9.25;9.00;;;;;;;;5058370;28;46990;-68
2022/05/17 08:06:43;;;;;;;;;4.50;4.50;;;;;;;;5054893;28;45372;-67
2022/05/17 08:09:09;;;;;;;;;13.75;12.25;;;;;;;;5060426;28;45501;-66
2022/05/17 08:11:34;;;;;;;;;19.50;18.50;;;;;;;;5058493;28;45368;-66
2022/05/17 08:13:59;;;;;;;;;21.25;18.25;;;;;;;;5058158;28;47602;-67
2022/05/17 08:16:24;;;;;;;;;20.50;16.00;;;;;;;;5058586;28;45401;-68
2022/05/17 08:18:49;;;;;;;;;23.25;18.50;;;;;;;;5054294;28;45445;-68
2022/05/17 08:21:15;;;;;;;;;20.00;18.75;;;;;;;;5060522;27;45285;-65
2022/05/17 08:23:40;;;;;;;;;11.00;9.50;;;;;;;;5057479;27;45865;-67
2022/05/17 08:28:49;;;;;;;;;6.00;6.00;;;;;;;;5058495;28;45435;-66
2022/05/17 08:31:14;;;;;;;;;7.75;7.00;;;;;;;;5057836;27;45527;-66
2022/05/17 08:33:40;;;;;;;;;3.25;3.25;;;;;;;;5055080;28;45978;-67
2022/05/17 08:36:08;;;;;;;;;9.25;8.25;;;;;;;;5060521;28;45514;-67
2022/05/17 08:38:33;;;;;;;;;5.75;5.75;;;;;;;;5056697;27;45418;-66
2022/05/17 08:41:17;;;;;;;;;13.00;10.00;;;;;;;;5057606;28;45538;-67
2022/05/17 08:43:48;;;;;;;;;6.00;6.00;;;;;;;;5040366;28;46282;-66
2022/05/17 08:46:22;;;;;;;;;5.25;5.25;;;;;;;;5056986;28;45542;-67
2022/05/17 08:48:52;;;;;;;;;4.25;4.25;;;;;;;;5037742;28;45302;-66
2022/05/17 08:51:25;;;;;;;;;49.50;41.50;;;;;;;;5067747;28;45436;-67
2022/05/17 08:53:50;;;;;;;;;17.75;8.50;;;;;;;;5057125;27;46213;-67
2022/05/17 08:56:16;;;;;;;;;8.25;8.25;;;;;;;;5057660;28;45351;-69
2022/05/17 08:58:43;;;;;;;;;5.25;5.25;;;;;;;;5057884;28;45540;-66
2022/05/17 09:01:36;;;;;;;;;4.50;3.75;;;;;;;;5057973;28;45367;-66
2022/05/17 09:04:10;;;;;;;;;7.50;6.50;;;;;;;;5038147;28;46097;-67
2022/05/17 09:06:40;;;;;;;;;4.00;4.00;;;;;;;;5056190;28;45410;-67
2022/05/17 09:09:14;;;;;;;;;3.25;3.25;;;;;;;;5058955;28;45398;-67
2022/05/17 09:11:46;;;;;;;;;3.00;2.00;;;;;;;;5064565;28;45280;-65
2022/05/17 09:14:15;;;;;;;;;4.00;4.00;;;;;;;;5062235;28;45467;-67
2022/05/17 09:16:52;;;;;;;;;3.33;2.00;;;;;;;;5057111;28;45356;-67
2022/05/17 09:19:18;;;;;;;;;3.00;2.67;;;;;;;;5057007;27;45585;-67
2022/05/17 09:21:44;;;;;;;;;7.00;4.25;;;;;;;;5053293;28;45249;-67
2022/05/17 09:24:16;;;;;;;;;4.67;3.00;;;;;;;;5059247;27;46356;-67
2022/05/17 09:26:47;;;;;;;;;4.00;4.00;;;;;;;;5057195;28;45513;-66
2022/05/17 09:29:18;;;;;;;;;4.33;2.67;;;;;;;;5057366;28;45339;-67
2022/05/17 09:31:54;;;;;;;;;3.00;3.00;;;;;;;;5057624;27;45241;-67
2022/05/17 09:34:25;;;;;;;;;3.00;3.00;;;;;;;;5057129;28;45540;-68
2022/05/17 09:36:52;;;;;;;;;5.75;5.75;;;;;;;;5036833;28;45555;-67
2022/05/17 09:39:21;;;;;;;;;4.00;4.00;;;;;;;;5058721;28;45309;-68
2022/05/17 09:41:47;;;;;;;;;2.00;2.00;;;;;;;;5057047;28;45527;-67
2022/05/17 09:44:14;;;;;;;;;2.33;2.33;;;;;;;;5056386;27;45986;-67
2022/05/17 09:46:45;;;;;;;;;2.67;2.67;;;;;;;;5057308;28;45436;-67
2022/05/17 09:54:53;;;;;;;;;2.00;2.00;;;;;;;;5037609;28;45458;-68
2022/05/17 09:57:18;;;;;;;;;3.33;2.00;;;;;;;;5059290;27;45394;-68
2022/05/17 09:59:45;;;;;;;;;1.00;0.00;;;;;;;;5058001;28;45531;-67
2022/05/17 10:02:34;;;;;;;;;2.67;2.00;;;;;;;;5059655;27;45707;-68
2022/05/17 10:05:20;;;;;;;;;5.67;4.67;;;;;;;;5058122;28;47072;-66
2022/05/17 10:07:57;;;;;;;;;3.33;3.33;;;;;;;;5057350;28;45577;-66
2022/05/17 10:10:29;;;;;;;;;1.00;1.00;;;;;;;;5058249;28;45858;-67
2022/05/17 10:12:56;;;;;;;;;2.00;2.00;;;;;;;;5052510;28;45334;-67
2022/05/17 10:15:22;;;;;;;;;4.25;4.25;;;;;;;;5074010;27;46372;-67
2022/05/17 10:17:51;;;;;;;;;1.00;1.00;;;;;;;;5057461;27;45456;-67
2022/05/17 10:20:23;;;;;;;;;5.00;4.33;;;;;;;;5056470;28;45336;-66
2022/05/17 10:23:05;;;;;;;;;3.33;2.00;;;;;;;;5056808;28;45441;-66
2022/05/17 10:25:33;;;;;;;;;4.00;4.00;;;;;;;;5056413;28;45523;-67
2022/05/17 10:28:07;;;;;;;;;5.75;3.00;;;;;;;;5047135;28;45482;-67
2022/05/17 10:30:41;;;;;;;;;2.33;1.67;;;;;;;;5047710;28;45688;-67
2022/05/17 10:33:10;;;;;;;;;2.00;2.00;;;;;;;;5050046;28;45478;-67
2022/05/17 10:35:45;;;;;;;;;3.67;2.00;;;;;;;;5048524;28;46442;-68
2022/05/17 10:38:12;;;;;;;;;2.00;2.00;;;;;;;;5050250;28;45448;-67
2022/05/17 10:40:46;;;;;;;;;1.00;1.00;;;;;;;;5046025;28;45454;-67
2022/05/17 10:43:15;;;;;;;;;6.67;3.00;;;;;;;;5049549;28;45471;-67
2022/05/17 10:45:41;;;;;;;;;1.00;1.00;;;;;;;;5047883;28;46165;-65
2022/05/17 10:48:25;;;;;;;;;1.67;1.33;;;;;;;;5050200;28;45478;-67
2022/05/17 10:50:53;;;;;;;;;4.00;3.00;;;;;;;;5052581;28;45464;-67
2022/05/17 10:53:36;;;;;;;;;2.00;2.00;;;;;;;;5053452;28;45428;-68
2022/05/17 10:56:06;;;;;;;;;3.33;2.00;;;;;;;;5056334;27;45995;-68
2022/05/17 10:58:35;;;;;;;;;3.67;3.00;;;;;;;;5053782;28;45563;-67
2022/05/17 11:01:09;;;;;;;;;3.33;2.33;;;;;;;;5053874;28;45514;-67
2022/05/17 11:04:12;;;;;;;;;3.33;2.00;;;;;;;;5050641;28;45570;-68
2022/05/17 11:06:37;;;;;;;;;3.33;3.33;;;;;;;;4947932;28;47052;-67
2022/05/17 11:09:20;;;;;;;;;3.00;3.00;;;;;;;;4950937;28;45797;-67
2022/05/17 11:11:53;;;;;;;;;2.00;2.00;;;;;;;;4950383;28;45715;-67
2022/05/17 11:14:31;;;;;;;;;1.00;1.00;;;;;;;;4950316;28;45452;-67
2022/05/17 11:17:25;;;;;;;;;1.00;1.00;;;;;;;;4951772;28;45587;-66
2022/05/17 11:19:56;;;;;;;;;5.00;4.00;;;;;;;;4927521;28;47961;-68
2022/05/17 11:22:26;;;;;;;;;1.67;1.67;;;;;;;;4951863;28;45520;-67
2022/05/17 11:25:00;;;;;;;;;4.33;2.67;;;;;;;;4951402;28;45402;-68
2022/05/17 11:27:38;;;;;;;;;5.75;5.75;;;;;;;;4954579;28;46321;-67
2022/05/17 11:30:08;;;;;;;;;3.67;3.67;;;;;;;;4957435;28;45328;-67
2022/05/17 11:32:35;;;;;;;;;1.00;1.00;;;;;;;;4957559;28;45480;-68
2022/05/17 11:35:03;;;;;;;;;4.00;3.67;;;;;;;;4957670;28;47634;-67
2022/05/17 11:37:38;;;;;;;;;3.00;3.00;;;;;;;;5010501;28;45552;-67
2022/05/17 11:40:04;;;;;;;;;6.00;5.00;;;;;;;;5056614;28;45512;-67
2022/05/17 11:43:39;;;;;;;;;5.00;3.00;;;;;;;;5058311;28;45341;-67
2022/05/17 11:45:24;;;;;;;;;6.00;3.00;;;;;;;;5068880;27;45277;-67
2022/05/17 11:47:55;;;;;;;;;2.00;2.00;;;;;;;;5059302;28;46791;-67
2022/05/17 11:50:42;;;;;;;;;6.00;5.00;;;;;;;;5058746;28;45375;-67
2022/05/17 11:53:22;;;;;;;;;2.67;2.67;;;;;;;;5059565;28;45374;-68
2022/05/17 11:56:06;;;;;;;;;4.00;4.00;;;;;;;;5059691;28;45460;-67
2022/05/17 11:58:31;;;;;;;;;5.00;5.00;;;;;;;;5059085;28;46530;-68
2022/05/17 12:00:56;;;;;;;;;4.33;4.33;;;;;;;;5052760;28;45319;-68
2022/05/17 12:03:42;;;;;;;;;4.00;4.00;;;;;;;;5059673;27;45290;-68
2022/05/17 12:06:09;;;;;;;;;4.67;2.67;;;;;;;;5045281;28;45517;-68
2022/05/17 12:08:39;;;;;;;;;3.00;3.00;;;;;;;;5058985;28;46279;-67
2022/05/17 12:11:05;;;;;;;;;1.50;1.50;;;;;;;;5058763;28;45368;-67
2022/05/17 12:13:32;;;;;;;;;1.50;1.50;;;;;;;;5058538;28;45499;-67
2022/05/17 12:15:57;;;;;;;;;5.50;3.50;;;;;;;;5055370;28;45470;-67
2022/05/17 12:18:31;;;;;;;;;1.50;1.50;;;;;;;;5059354;28;47105;-68
2022/05/17 12:21:09;;;;;;;;;3.00;3.00;;;;;;;;5060053;27;45426;-67
2022/05/17 12:23:38;;;;;;;;;3.75;2.75;;;;;;;;5058250;28;45480;-70
2022/05/17 12:26:07;;;;;;;;;4.25;4.25;;;;;;;;5057906;28;45569;-68
2022/05/17 12:28:41;;;;;;;;;2.00;2.00;;;;;;;;5057636;28;45549;-67
2022/05/17 12:31:08;;;;;;;;;3.25;2.25;;;;;;;;5054679;28;45494;-68
2022/05/17 12:33:41;;;;;;;;;3.75;2.75;;;;;;;;5055910;27;45457;-68
2022/05/17 12:36:14;;;;;;;;;5.50;4.50;;;;;;;;5058840;28;45506;-68
2022/05/17 12:44:17;;;;;;;;;3.67;3.00;;;;;;;;5057535;28;45313;-67
2022/05/17 12:46:45;;;;;;;;;2.67;2.67;;;;;;;;5057169;28;45261;-68
2022/05/17 12:49:18;;;;;;;;;2.33;2.33;;;;;;;;5056162;28;45313;-66
2022/05/17 12:51:49;;;;;;;;;5.75;4.00;;;;;;;;5053836;28;45395;-66
2022/05/17 12:54:18;;;;;;;;;5.75;3.75;;;;;;;;5059786;28;45338;-66
2022/05/17 12:56:43;;;;;;;;;3.25;1.50;;;;;;;;5057331;28;45324;-66
2022/05/17 12:59:09;;;;;;;;;5.00;5.00;;;;;;;;5057016;28;45306;-66
2022/05/17 13:01:42;;;;;;;;;4.00;4.00;;;;;;;;5057373;28;45258;-67
2022/05/17 13:04:12;;;;;;;;;6.25;5.00;;;;;;;;5055394;28;45496;-66
2022/05/17 13:06:39;;;;;;;;;4.00;3.00;;;;;;;;5055209;28;45486;-66
2022/05/17 13:09:06;;;;;;;;;3.50;3.50;;;;;;;;5059476;27;46140;-66
2022/05/17 13:11:32;;;;;;;;;4.00;4.00;;;;;;;;5057068;28;45404;-66
2022/05/17 13:13:58;;;;;;;;;4.00;4.00;;;;;;;;5055536;28;45312;-65
2022/05/17 13:16:26;;;;;;;;;3.75;3.00;;;;;;;;5039430;28;45645;-67
2022/05/17 13:18:54;;;;;;;;;8.00;7.00;;;;;;;;5052902;28;46486;-66
2022/05/17 13:21:22;;;;;;;;;7.75;5.25;;;;;;;;5067416;28;45449;-66
2022/05/17 13:23:48;;;;;;;;;8.00;8.00;;;;;;;;5057891;28;45465;-66
2022/05/17 13:26:19;;;;;;;;;6.75;6.50;;;;;;;;5057371;28;45539;-65
2022/05/17 13:28:44;;;;;;;;;6.00;6.00;;;;;;;;5057216;28;46419;-66
2022/05/17 13:31:14;;;;;;;;;4.00;4.00;;;;;;;;5055621;27;45481;-65
2022/05/17 13:33:42;;;;;;;;;5.00;5.00;;;;;;;;5054583;28;45324;-64
2022/05/17 13:36:09;;;;;;;;;3.00;3.00;;;;;;;;5059628;28;45413;-64
2022/05/17 13:38:38;;;;;;;;;4.00;4.00;;;;;;;;5057370;28;47207;-66
2022/05/17 13:41:14;;;;;;;;;3.50;3.00;;;;;;;;5057508;28;45566;-66
2022/05/17 13:43:42;;;;;;;;;5.50;5.00;;;;;;;;5056358;27;45575;-66
2022/05/17 13:46:09;;;;;;;;;3.67;2.33;;;;;;;;5055512;28;45463;-67
2022/05/17 13:48:36;;;;;;;;;2.25;2.00;;;;;;;;5054917;28;46330;-67
2022/05/17 13:51:02;;;;;;;;;2.50;2.50;;;;;;;;5057292;28;45463;-67
2022/05/17 13:53:39;;;;;;;;;8.25;7.00;;;;;;;;5056550;28;45507;-66
2022/05/17 13:56:04;;;;;;;;;2.50;2.25;;;;;;;;5056700;28;45621;-66
2022/05/17 13:58:30;;;;;;;;;3.75;3.50;;;;;;;;5055796;28;46357;-67
2022/05/17 14:00:58;;;;;;;;;3.75;3.75;;;;;;;;5052924;28;45232;-67
2022/05/17 14:03:24;;;;;;;;;3.50;3.50;;;;;;;;5056850;27;45426;-66
2022/05/17 14:05:58;;;;;;;;;4.00;4.00;;;;;;;;5055700;28;45403;-66
2022/05/17 14:11:50;;;;;;;;;4.25;3.50;;;;;;;;5056278;28;45538;-66
2022/05/17 14:14:16;;;;;;;;;1.50;1.50;;;;;;;;5056626;27;45284;-66
2022/05/17 14:16:46;;;;;;;;;5.25;5.25;;;;;;;;5056331;28;45276;-66
2022/05/17 14:19:16;;;;;;;;;0.25;0.25;;;;;;;;5054920;28;45756;-66
2022/05/17 14:21:45;;;;;;;;;3.00;2.00;;;;;;;;5052824;28;45403;-66
2022/05/17 14:24:14;;;;;;;;;4.25;4.25;;;;;;;;5058648;28;45460;-65
2022/05/17 14:26:40;;;;;;;;;4.75;4.75;;;;;;;;5055883;28;45558;-66
2022/05/17 14:29:05;;;;;;;;;0.50;0.00;;;;;;;;5056658;28;49914;-65
2022/05/17 14:31:33;;;;;;;;;3.75;3.75;;;;;;;;5057000;28;45354;-65
2022/05/17 14:34:00;;;;;;;;;3.00;3.00;;;;;;;;5035146;27;45309;-66
2022/05/17 14:36:26;;;;;;;;;4.75;4.75;;;;;;;;5057211;28;45136;-66
2022/05/17 14:38:52;;;;;;;;;2.00;2.00;;;;;;;;5057324;28;47092;-65
2022/05/17 14:41:17;;;;;;;;;2.25;2.25;;;;;;;;5056051;28;45452;-66
2022/05/17 14:43:42;;;;;;;;;4.00;3.25;;;;;;;;5056092;28;46123;-68
2022/05/17 14:46:09;;;;;;;;;6.50;5.50;;;;;;;;5054414;28;45499;-67
2022/05/17 14:48:35;;;;;;;;;1.25;1.25;;;;;;;;5054256;28;46362;-68
2022/05/17 14:51:01;;;;;;;;;2.75;2.75;;;;;;;;5057597;28;45400;-67
2022/05/17 14:53:27;;;;;;;;;4.50;4.50;;;;;;;;5056149;28;46265;-68
2022/05/17 14:55:52;;;;;;;;;3.00;3.00;;;;;;;;5055775;28;45442;-68
2022/05/17 14:58:17;;;;;;;;;4.00;4.00;;;;;;;;5056612;28;46192;-67
2022/05/17 15:00:43;;;;;;;;;2.00;2.00;;;;;;;;5054217;28;45281;-65
2022/05/17 15:03:15;;;;;;;;;3.00;3.00;;;;;;;;5060220;28;45467;-66
2022/05/17 15:05:42;;;;;;;;;2.75;2.75;;;;;;;;5039448;28;45426;-67